Wesley, Arkansas
Current Conditions -  °F | °C
As of 5:02 AM on Sunday 23 Nov 2014 (Local Time) from KFYV Reporting Station
Overcast Overcast  
Wind Chill: 57°   Ceiling: 9000
Heat Index: 57°   Visibility: 10mi
Dew Point: 54°   Wind: 9mph
Humidity: 89%   Direction: 160°SSE
Pressure: 29.61"   Gusts: NA
Location:  36.03°N, 93.92°W
Report Text: KFYV 231102Z AUTO 16008KT 10SM SCT014 OVC090 14/12 A2961 RMK AO2 T01390122 $
Loading
Personal Weather Stations






























Interactive Weather Map New forecast layout! Learn more

10-Day Weather Forecast

Advertisements
Track Severe Weather on mobile